Newport Municipal Airport
KONP : now visible

Airfield :











YOU CAN JOIN US ON...

 
LOGIN :

Register | Disclaimer

   EN    FR    IT 

 









Legend :    VFR   Marginal VFR   IFR   Intensive IFR   Very Intensive IFR
Visi :
Ceiling :
>= 8 km
>= 3000ft
5 to 8 km
1000 to 3000 ft
1500m to 5 km
500 to 1000 ft
800 to 1500m
200 to 500 ft
< 800m
< 200 ft
Symbols :   Thunderstorms  Fog  Heavy snow  Heavy precipitations  Wind > 20 kt






- Airport Elevation : 160 ft


KONP - Newport Municipal

CURRENT METAR :
  • 031055Z AUTO 00000KT 10SM CLR 04/01 A3023 RMK AO2

EXPIRED METARs :
  • 031035Z AUTO 00000KT 10SM CLR 03/01 A3022 RMK AO2
  • 031015Z AUTO 00000KT 10SM CLR 04/01 A3023 RMK AO2
  • 030955Z AUTO 00000KT 10SM CLR 03/02 A3022 RMK AO2
  • 030935Z AUTO 00000KT 10SM CLR 04/02 A3023 RMK AO2
  • 030915Z AUTO 00000KT 10SM CLR 05/03 A3022 RMK AO2
  • 030855Z AUTO 00000KT 10SM CLR 04/03 A3022 RMK AO2
  • 030835Z AUTO 00000KT 10SM CLR 02/02 A3022 RMK AO2
  • 030815Z AUTO 00000KT 10SM CLR 03/03 A3021 RMK AO2

TAF KONP
Valid from the 03 at 06:00 until the 04 at 06:00 UTC


030525Z 0306/0406 10004KT P6SM SCT120 BKN200
FM031000 VRB03KT 4SM BR BKN008 OVC120
FM031200 13004KT 5SM BR BKN010 BKN070
FM031800 15006KT P6SM BKN020 OVC045
FM032200 16007KT P6SM -RA SCT010 BKN020 OVC040
KZSE FIR / North America



MET'MAP, your aeronautical weather chart ! - Copyright ORBIFLY December 2007 - Disclaimer

ORBIFLY MET'MAP TEAM :

Programming & Development : Alexandra Zaïnal
Concept & original design : Baudouin d'Aumeries
Assistance for programming : Marc-Olivier Méhu
Technical & hardware support : Manuel Goepfert

Contact : metmap@orbifly.com




SOURCES & CREDITS :

   NOAA       Earth
Advisory